createdAt,value
2018-01-29T00:01:43.960Z,3.45
2018-01-29T00:04:12.069Z,3.78
2018-01-29T00:06:40.363Z,3.80
2018-01-29T00:09:08.484Z,5.10
2018-01-29T00:11:37.372Z,4.87
2018-01-29T00:14:05.494Z,2.90
2018-01-29T00:16:33.660Z,4.20
2018-01-29T00:19:01.803Z,3.25
2018-01-29T00:21:30.683Z,4.57
2018-01-29T00:23:58.791Z,3.83
2018-01-29T00:26:26.956Z,2.92
2018-01-29T00:28:55.844Z,3.97
2018-01-29T00:31:24.723Z,4.20
2018-01-29T00:33:53.739Z,3.97
2018-01-29T00:36:21.847Z,3.42
2018-01-29T00:38:49.993Z,4.20
2018-01-29T00:41:18.111Z,3.33
2018-01-29T00:43:46.223Z,3.08
2018-01-29T00:46:14.395Z,3.67
2018-01-29T00:48:42.511Z,5.07
2018-01-29T00:51:10.649Z,4.00
2018-01-29T00:53:38.827Z,3.80
2018-01-29T00:56:06.931Z,3.22
2018-01-29T00:58:35.095Z,4.03
2018-01-29T01:01:03.223Z,5.15
2018-01-29T01:03:32.097Z,4.07
2018-01-29T01:06:00.991Z,4.80
2018-01-29T01:08:29.883Z,4.62
2018-01-29T01:10:58.799Z,6.22
2018-01-29T01:13:26.925Z,5.07
2018-01-29T01:15:55.037Z,5.18
2018-01-29T01:18:23.171Z,5.80
2018-01-29T01:20:51.343Z,5.30
2018-01-29T01:23:19.458Z,7.07
2018-01-29T01:25:47.635Z,7.43
2018-01-29T01:28:15.829Z,6.10
2018-01-29T01:30:43.943Z,6.57
2018-01-29T01:33:13.575Z,6.15
2018-01-29T01:35:42.695Z,4.90
2018-01-29T01:38:10.825Z,7.03
2018-01-29T01:40:38.943Z,8.20
2018-01-29T01:43:07.075Z,6.20
2018-01-29T01:45:35.963Z,9.98
2018-01-29T01:48:05.881Z,5.78
2018-01-29T01:50:34.784Z,9.60
2018-01-29T01:53:03.662Z,6.53
2018-01-29T01:55:31.786Z,8.30
2018-01-29T01:57:59.919Z,8.45
2018-01-29T02:00:28.903Z,6.22
2018-01-29T02:02:57.802Z,8.20
2018-01-29T02:05:26.706Z,6.40
2018-01-29T02:07:54.834Z,6.70
2018-01-29T02:10:23.432Z,8.07
2018-01-29T02:12:51.540Z,5.60
2018-01-29T02:15:19.710Z,6.65
2018-01-29T02:17:47.842Z,6.10
2018-01-29T02:20:16.158Z,8.15
2018-01-29T02:22:45.027Z,7.62
2018-01-29T02:25:13.902Z,7.55
2018-01-29T02:27:42.038Z,6.28
2018-01-29T02:30:10.174Z,9.40
2018-01-29T02:32:39.053Z,9.10
2018-01-29T02:35:07.929Z,11.10
2018-01-29T02:37:37.562Z,6.43
2018-01-29T02:40:06.658Z,6.35
2018-01-29T02:42:35.535Z,9.48
2018-01-29T02:45:03.642Z,8.63
2018-01-29T02:47:31.768Z,8.43
2018-01-29T02:50:00.079Z,7.15
2018-01-29T02:52:28.948Z,7.93
2018-01-29T02:54:57.830Z,8.35
2018-01-29T02:57:25.946Z,8.40
2018-01-29T02:59:54.118Z,10.15
2018-01-29T03:02:22.232Z,8.95
2018-01-29T03:04:50.338Z,11.57
2018-01-29T03:07:18.494Z,10.43
2018-01-29T03:09:46.692Z,7.70
2018-01-29T03:12:15.563Z,8.77
2018-01-29T03:14:43.687Z,10.57
2018-01-29T03:17:11.846Z,10.40
2018-01-29T03:19:40.004Z,9.65
2018-01-29T03:22:08.119Z,11.20
2018-01-29T03:24:36.274Z,8.90
2018-01-29T03:27:04.384Z,8.20
2018-01-29T03:29:32.585Z,10.57
2018-01-29T03:32:01.484Z,9.25
2018-01-29T03:34:30.364Z,10.57
2018-01-29T03:36:59.253Z,10.00
2018-01-29T03:39:28.263Z,8.40
2018-01-29T03:41:56.386Z,9.27
2018-01-29T03:44:24.500Z,11.07
2018-01-29T03:46:53.446Z,9.68
2018-01-29T03:49:22.343Z,10.13
2018-01-29T03:51:50.463Z,9.90
2018-01-29T03:54:18.579Z,10.95
2018-01-29T03:56:46.695Z,11.73
2018-01-29T03:59:15.584Z,12.23
2018-01-29T04:01:44.596Z,8.32
2018-01-29T04:04:12.716Z,8.80
2018-01-29T04:06:40.835Z,10.07
2018-01-29T04:09:08.966Z,8.30
2018-01-29T04:11:37.083Z,7.43
2018-01-29T04:14:05.264Z,11.82
2018-01-29T04:16:33.383Z,8.43
2018-01-29T04:19:01.633Z,8.75
2018-01-29T04:21:29.759Z,9.15
2018-01-29T04:23:58.651Z,11.12
2018-01-29T04:26:27.567Z,12.23
2018-01-29T04:28:56.087Z,13.25
2018-01-29T04:31:24.275Z,8.75
2018-01-29T04:33:52.417Z,6.82
2018-01-29T04:36:20.499Z,9.13
2018-01-29T04:38:48.637Z,9.88
2018-01-29T04:41:16.761Z,8.77
2018-01-29T04:43:46.391Z,11.25
2018-01-29T04:46:20.125Z,12.55
2018-01-29T04:48:48.245Z,13.98
2018-01-29T04:51:16.369Z,11.95
2018-01-29T04:53:44.487Z,12.68
2018-01-29T04:56:12.621Z,12.70
2018-01-29T04:58:40.732Z,9.20
2018-01-29T05:01:08.855Z,9.15
2018-01-29T05:03:36.982Z,11.18
2018-01-29T05:06:05.118Z,11.68
2018-01-29T05:08:33.239Z,11.20
2018-01-29T05:11:02.156Z,10.80
2018-01-29T05:13:31.047Z,12.13
2018-01-29T05:15:59.930Z,13.23
2018-01-29T05:18:28.834Z,12.50
2018-01-29T05:20:57.011Z,10.40
2018-01-29T05:23:25.143Z,13.48
2018-01-29T05:25:53.257Z,13.45
2018-01-29T05:28:21.375Z,9.95
2018-01-29T05:30:49.531Z,7.40
2018-01-29T05:33:17.646Z,10.73
2018-01-29T05:38:48.134Z,9.05
2018-01-29T05:41:16.292Z,7.55
2018-01-29T05:43:44.412Z,10.32
2018-01-29T05:46:12.530Z,7.93
2018-01-29T05:48:40.654Z,7.22
2018-01-29T05:51:08.782Z,12.32
2018-01-29T05:53:36.952Z,10.68
2018-01-29T05:56:05.076Z,8.70
2018-01-29T05:58:33.296Z,9.35
2018-01-29T06:01:02.233Z,9.25
2018-01-29T06:03:30.360Z,7.22
2018-01-29T06:05:59.228Z,5.53
2018-01-29T06:08:28.128Z,9.82
2018-01-29T06:10:57.022Z,6.65
2018-01-29T06:13:25.898Z,7.93
2018-01-29T06:15:54.066Z,4.43
2018-01-29T06:18:22.174Z,4.72
2018-01-29T06:20:50.334Z,4.00
2018-01-29T06:23:19.226Z,6.00
2018-01-29T06:25:47.350Z,7.90
2018-01-29T06:28:15.511Z,8.23
2018-01-29T06:30:43.628Z,7.15
2018-01-29T06:33:12.508Z,6.53
2018-01-29T06:35:40.616Z,5.50
2018-01-29T06:38:08.780Z,4.50
2018-01-29T06:40:37.702Z,3.85
2018-01-29T06:43:05.849Z,4.97
2018-01-29T06:45:33.954Z,5.15
2018-01-29T06:48:02.072Z,4.72
2018-01-29T06:50:30.266Z,4.80
2018-01-29T06:52:58.388Z,5.78
2018-01-29T06:55:26.500Z,4.18
2018-01-29T06:57:55.388Z,3.30
2018-01-29T07:00:24.285Z,4.80
2018-01-29T07:02:53.246Z,3.83
2018-01-29T07:05:22.328Z,2.92
2018-01-29T07:07:50.448Z,4.47
2018-01-29T07:10:18.569Z,3.30
2018-01-29T07:12:46.855Z,4.37
2018-01-29T07:15:14.975Z,5.53
2018-01-29T07:17:43.147Z,5.90
2018-01-29T07:20:11.411Z,3.55
2018-01-29T07:22:40.307Z,3.55
2018-01-29T07:25:09.237Z,4.00
2018-01-29T07:27:37.427Z,3.33
2018-01-29T07:30:05.507Z,4.00
2018-01-29T07:32:35.355Z,3.62
2018-01-29T07:35:04.231Z,4.25
2018-01-29T07:37:32.343Z,3.78
2018-01-29T07:40:00.487Z,3.85
2018-01-29T07:42:29.386Z,2.80
2018-01-29T07:44:58.256Z,4.15
2018-01-29T07:47:27.138Z,2.80
2018-01-29T07:49:55.276Z,3.70
2018-01-29T07:52:23.443Z,3.40
2018-01-29T07:54:51.540Z,2.72
2018-01-29T07:57:19.658Z,3.28
2018-01-29T07:59:48.604Z,3.90
2018-01-29T08:02:16.931Z,3.65
2018-01-29T08:04:45.055Z,4.07
2018-01-29T08:07:13.175Z,3.95
2018-01-29T08:09:42.162Z,2.33
2018-01-29T08:12:11.036Z,3.78
2018-01-29T08:14:39.952Z,2.83
2018-01-29T08:17:08.107Z,2.70
2018-01-29T08:19:37.111Z,2.75
2018-01-29T08:22:05.293Z,2.20
2018-01-29T08:24:33.403Z,2.75
2018-01-29T08:27:01.531Z,4.05
2018-01-29T08:29:30.427Z,3.17
2018-01-29T08:31:58.555Z,3.42
2018-01-29T08:34:26.696Z,4.12
2018-01-29T08:36:54.807Z,3.53
2018-01-29T08:39:24.438Z,2.90
2018-01-29T08:41:53.380Z,3.40
2018-01-29T08:44:21.495Z,4.82
2018-01-29T08:46:50.435Z,5.18
2018-01-29T08:49:18.583Z,4.87
2018-01-29T08:51:46.759Z,4.53
2018-01-29T08:54:14.879Z,3.47
2018-01-29T08:56:42.990Z,6.95
2018-01-29T08:59:11.939Z,5.57
2018-01-29T09:01:40.059Z,6.40
2018-01-29T09:04:08.179Z,4.37
2018-01-29T09:06:36.319Z,5.72
2018-01-29T09:09:04.442Z,4.37
2018-01-29T09:11:32.612Z,4.60
2018-01-29T09:14:00.831Z,9.57
2018-01-29T09:16:28.953Z,5.18
2018-01-29T09:18:57.078Z,7.75
2018-01-29T09:21:25.351Z,6.53
2018-01-29T09:23:53.690Z,4.72
2018-01-29T09:26:21.803Z,3.65
2018-01-29T09:28:49.928Z,6.57
2018-01-29T09:31:18.101Z,5.97
2018-01-29T09:33:46.223Z,6.60
2018-01-29T09:36:14.386Z,8.57
2018-01-29T09:38:42.563Z,5.80
2018-01-29T09:41:10.739Z,6.28
2018-01-29T09:43:38.874Z,8.40
2018-01-29T09:46:08.535Z,5.55
2018-01-29T09:48:36.687Z,4.93
2018-01-29T09:51:05.571Z,6.18
2018-01-29T09:53:34.527Z,6.25
2018-01-29T09:56:02.622Z,8.57
2018-01-29T09:58:30.735Z,5.05
2018-01-29T10:00:58.903Z,6.62
2018-01-29T10:03:27.133Z,9.00
2018-01-29T10:05:55.314Z,7.18
2018-01-29T10:08:23.362Z,6.47
2018-01-29T10:10:51.533Z,7.60
2018-01-29T10:13:19.650Z,6.82
2018-01-29T10:15:47.822Z,6.35
2018-01-29T10:18:16.719Z,7.15
2018-01-29T10:20:44.831Z,7.53
2018-01-29T10:23:12.992Z,7.47
2018-01-29T10:25:41.104Z,6.53
2018-01-29T10:28:10.724Z,6.87
2018-01-29T10:30:39.626Z,7.60
2018-01-29T10:33:08.506Z,7.87
2018-01-29T10:35:37.394Z,11.65
2018-01-29T10:38:06.300Z,8.30
2018-01-29T10:40:35.176Z,8.00
2018-01-29T10:43:04.132Z,9.98
2018-01-29T10:45:32.280Z,10.57
2018-01-29T10:48:00.436Z,7.07
2018-01-29T10:50:28.740Z,9.75
2018-01-29T10:52:56.847Z,10.88
2018-01-29T10:55:24.966Z,7.00
2018-01-29T10:57:53.232Z,9.43
2018-01-29T11:00:21.393Z,7.00
2018-01-29T11:02:50.299Z,9.52
2018-01-29T11:05:18.417Z,7.87
2018-01-29T11:07:46.773Z,10.50
2018-01-29T11:10:14.859Z,7.47
2018-01-29T11:12:43.011Z,11.02
2018-01-29T11:15:11.225Z,9.63
2018-01-29T11:17:39.297Z,9.75
2018-01-29T11:20:07.443Z,9.43
2018-01-29T11:22:35.583Z,10.77
2018-01-29T11:25:03.959Z,6.75
2018-01-29T11:27:32.235Z,11.55
2018-01-29T11:30:00.359Z,8.82
2018-01-29T11:32:28.596Z,10.35
2018-01-29T11:34:56.721Z,11.73
2018-01-29T11:37:24.823Z,7.95
2018-01-29T11:39:53.823Z,12.00
2018-01-29T11:42:21.983Z,11.15
2018-01-29T11:44:50.903Z,11.80
2018-01-29T11:47:19.040Z,11.88
2018-01-29T11:49:47.927Z,12.10
2018-01-29T11:52:16.855Z,15.00
2018-01-29T11:54:45.824Z,10.32
2018-01-29T11:57:14.707Z,12.00
2018-01-29T11:59:43.601Z,8.13
2018-01-29T12:02:12.503Z,9.88
2018-01-29T12:04:40.707Z,7.45
2018-01-29T12:07:08.859Z,12.77
2018-01-29T12:09:36.975Z,10.82
2018-01-29T12:12:05.103Z,13.35
2018-01-29T12:14:33.263Z,10.50
2018-01-29T12:17:01.390Z,12.48
2018-01-29T12:19:29.515Z,11.25
2018-01-29T12:21:57.650Z,9.40
2018-01-29T12:24:25.798Z,8.93
2018-01-29T12:26:53.916Z,7.68
2018-01-29T12:29:22.827Z,8.35
2018-01-29T12:31:51.035Z,9.48
2018-01-29T12:34:19.582Z,9.18
2018-01-29T12:36:47.767Z,9.85
2018-01-29T12:39:15.932Z,11.68
2018-01-29T12:41:44.055Z,9.27
2018-01-29T12:44:12.224Z,7.15
2018-01-29T12:46:40.375Z,8.40
2018-01-29T12:49:08.498Z,8.55
2018-01-29T12:51:37.433Z,10.15
2018-01-29T12:54:05.602Z,9.13
2018-01-29T12:56:33.718Z,10.48
2018-01-29T12:59:01.930Z,9.55
2018-01-29T13:01:30.102Z,9.10
2018-01-29T13:03:58.244Z,8.57
2018-01-29T13:06:26.346Z,8.57
2018-01-29T13:08:54.462Z,10.02
2018-01-29T13:11:22.700Z,6.72
2018-01-29T13:13:50.746Z,13.73
2018-01-29T13:16:19.634Z,8.13
2018-01-29T13:18:48.516Z,10.32
2018-01-29T13:21:17.412Z,8.60
2018-01-29T13:23:46.419Z,9.93
2018-01-29T13:26:15.326Z,9.80
2018-01-29T13:28:43.447Z,9.05
2018-01-29T13:31:11.878Z,8.75
2018-01-29T13:33:40.250Z,6.03
2018-01-29T13:36:08.400Z,7.00
2018-01-29T13:38:38.102Z,8.93
2018-01-29T13:41:07.726Z,10.50
2018-01-29T13:43:36.641Z,8.15
2018-01-29T13:46:04.754Z,8.75
2018-01-29T13:48:32.862Z,8.02
2018-01-29T13:51:01.872Z,8.20
2018-01-29T13:53:29.998Z,5.50
2018-01-29T13:55:58.118Z,8.80
2018-01-29T13:58:26.250Z,5.50
2018-01-29T14:00:54.362Z,5.43
2018-01-29T14:03:22.532Z,7.60
2018-01-29T14:05:50.680Z,7.72
2018-01-29T14:08:19.571Z,8.32
2018-01-29T14:10:47.864Z,6.97
2018-01-29T14:13:16.764Z,8.57
2018-01-29T14:15:44.934Z,6.57
2018-01-29T14:18:14.636Z,8.45
2018-01-29T14:20:43.639Z,4.93
2018-01-29T14:23:11.826Z,5.18
2018-01-29T14:25:39.988Z,5.85
2018-01-29T14:28:08.153Z,5.75
2018-01-29T14:30:37.089Z,5.68
2018-01-29T14:33:05.203Z,4.95
2018-01-29T14:35:34.123Z,6.07
2018-01-29T14:38:02.271Z,6.55
2018-01-29T14:40:31.147Z,3.47
2018-01-29T14:42:59.367Z,5.03
2018-01-29T14:45:27.512Z,4.47
2018-01-29T14:47:56.419Z,5.30
2018-01-29T14:50:24.591Z,5.12
2018-01-29T14:52:52.780Z,5.93
2018-01-29T14:55:21.755Z,6.70
2018-01-29T14:57:49.887Z,5.43
2018-01-29T15:00:18.007Z,5.97
2018-01-29T15:02:46.164Z,4.65
2018-01-29T15:05:14.308Z,4.30
2018-01-29T15:07:42.423Z,6.80
2018-01-29T15:10:10.568Z,5.37
2018-01-29T15:12:38.697Z,3.83
2018-01-29T15:15:06.827Z,6.35
2018-01-29T15:17:35.703Z,3.35
2018-01-29T15:20:04.587Z,3.40
2018-01-29T15:22:33.486Z,5.80
2018-01-29T15:25:02.637Z,5.50
2018-01-29T15:27:30.766Z,4.32
2018-01-29T15:29:59.677Z,6.50
2018-01-29T15:32:27.847Z,5.12
2018-01-29T15:34:56.022Z,6.05
2018-01-29T15:37:24.149Z,3.75
2018-01-29T15:39:52.396Z,6.78
2018-01-29T15:42:20.534Z,4.97
2018-01-29T15:44:49.467Z,4.87
2018-01-29T15:47:17.582Z,4.82
2018-01-29T15:49:46.525Z,5.18
2018-01-29T15:52:14.622Z,5.70
2018-01-29T15:54:42.815Z,5.28
2018-01-29T15:57:10.939Z,8.38
2018-01-29T15:59:39.047Z,5.12
2018-01-29T16:02:07.373Z,7.12
2018-01-29T16:04:35.797Z,7.37
2018-01-29T16:07:03.986Z,6.28
2018-01-29T16:09:33.668Z,5.60
2018-01-29T16:12:02.015Z,8.48
2018-01-29T16:14:30.182Z,7.22
2018-01-29T16:16:58.332Z,6.68
2018-01-29T16:19:27.225Z,7.22
2018-01-29T16:21:55.326Z,6.72
2018-01-29T16:24:23.506Z,8.23
2018-01-29T16:26:51.634Z,10.02
2018-01-29T16:29:20.534Z,7.60
2018-01-29T16:31:49.420Z,7.50
2018-01-29T16:34:18.431Z,6.45
2018-01-29T16:36:47.356Z,6.75
2018-01-29T16:39:15.464Z,7.00
2018-01-29T16:41:44.350Z,7.05
2018-01-29T16:44:12.484Z,9.05
2018-01-29T16:46:40.606Z,8.15
2018-01-29T16:49:08.734Z,9.93
2018-01-29T16:51:36.825Z,6.32
2018-01-29T16:54:04.963Z,9.02
2018-01-29T16:56:33.128Z,12.37
2018-01-29T16:59:01.244Z,6.25
2018-01-29T17:01:30.093Z,10.95
2018-01-29T17:03:58.204Z,9.20
2018-01-29T17:06:26.331Z,10.27
2018-01-29T17:08:54.458Z,10.65
2018-01-29T17:11:22.578Z,11.40
2018-01-29T17:13:50.739Z,9.02
2018-01-29T17:16:19.658Z,13.05
2018-01-29T17:18:48.016Z,11.60
2018-01-29T17:21:16.222Z,11.07
2018-01-29T17:23:44.352Z,11.25
2018-01-29T17:26:13.241Z,9.88
2018-01-29T17:28:42.176Z,9.52
2018-01-29T17:31:10.283Z,9.25
2018-01-29T17:33:38.403Z,9.98
2018-01-29T17:36:06.544Z,13.57
2018-01-29T17:38:35.445Z,11.68
2018-01-29T17:41:04.328Z,11.10
2018-01-29T17:43:33.225Z,12.98
2018-01-29T17:46:02.124Z,12.45
2018-01-29T17:48:30.399Z,13.10
2018-01-29T17:50:58.511Z,14.20
2018-01-29T17:53:26.643Z,12.18
2018-01-29T17:55:55.647Z,12.32
2018-01-29T17:58:23.781Z,12.90
2018-01-29T18:00:52.781Z,13.38
2018-01-29T18:03:20.849Z,13.05
2018-01-29T18:05:49.051Z,17.15
2018-01-29T18:08:17.331Z,10.20
2018-01-29T18:10:45.473Z,10.55
2018-01-29T18:13:13.591Z,15.32
2018-01-29T18:15:41.743Z,12.88
2018-01-29T18:18:09.859Z,12.63
2018-01-29T18:20:38.291Z,11.15
2018-01-29T18:23:07.171Z,11.35
2018-01-29T18:25:36.279Z,12.65
2018-01-29T18:28:04.431Z,13.68
2018-01-29T18:30:32.573Z,13.77
2018-01-29T18:33:00.693Z,12.07
2018-01-29T18:35:29.591Z,10.63
2018-01-29T18:37:57.766Z,15.63
2018-01-29T18:40:25.940Z,11.35
2018-01-29T18:42:54.071Z,13.73
2018-01-29T18:45:22.220Z,11.90
2018-01-29T18:47:50.398Z,13.80
2018-01-29T18:50:18.547Z,10.00
2018-01-29T18:52:46.674Z,6.30
2018-01-29T18:55:16.286Z,6.47
2018-01-29T18:57:45.227Z,6.10
2018-01-29T19:00:13.481Z,4.53
2018-01-29T19:02:41.591Z,5.20
2018-01-29T19:05:09.702Z,5.43
2018-01-29T19:07:38.618Z,6.87
2018-01-29T19:10:07.248Z,5.90
2018-01-29T19:12:35.367Z,7.68
2018-01-29T19:15:04.235Z,9.30
2018-01-29T19:17:33.245Z,9.15
2018-01-29T19:20:02.347Z,9.48
2018-01-29T19:22:31.262Z,7.18
2018-01-29T19:24:59.615Z,8.43
2018-01-29T19:27:27.802Z,13.23
2018-01-29T19:29:55.964Z,10.90
2018-01-29T19:32:24.075Z,11.15
2018-01-29T19:34:52.182Z,11.02
2018-01-29T19:37:20.362Z,10.25
2018-01-29T19:39:49.404Z,12.35
2018-01-29T19:42:17.514Z,9.40
2018-01-29T19:44:47.137Z,7.95
2018-01-29T19:47:16.046Z,7.43
2018-01-29T19:49:45.046Z,13.02
2018-01-29T19:52:13.168Z,8.52
2018-01-29T19:54:41.270Z,10.35
2018-01-29T19:57:10.204Z,9.80
2018-01-29T19:59:38.450Z,10.20
2018-01-29T20:02:06.558Z,9.65
2018-01-29T20:04:34.660Z,9.13
2018-01-29T20:07:02.822Z,11.12
2018-01-29T20:09:31.044Z,10.70
2018-01-29T20:11:59.214Z,11.15
2018-01-29T20:14:27.332Z,10.75
2018-01-29T20:16:55.450Z,11.48
2018-01-29T20:19:24.484Z,9.32
2018-01-29T20:21:52.642Z,13.20
2018-01-29T20:24:20.806Z,12.90
2018-01-29T20:26:48.910Z,13.30
2018-01-29T20:29:17.042Z,14.38
2018-01-29T20:31:46.670Z,9.65
2018-01-29T20:34:14.788Z,15.68
2018-01-29T20:36:42.902Z,10.93
2018-01-29T20:39:11.042Z,9.63
2018-01-29T20:41:39.142Z,10.50
2018-01-29T20:44:07.246Z,9.20
2018-01-29T20:46:35.386Z,13.13
2018-01-29T20:49:04.262Z,10.60
2018-01-29T20:51:33.147Z,12.37
2018-01-29T20:54:02.056Z,11.07
2018-01-29T20:56:30.950Z,9.30
2018-01-29T20:58:59.112Z,10.40
2018-01-29T21:01:27.998Z,10.38
2018-01-29T21:03:56.905Z,12.37
2018-01-29T21:06:25.772Z,10.77
2018-01-29T21:08:54.713Z,10.82
2018-01-29T21:11:22.823Z,10.45
2018-01-29T21:13:50.938Z,10.85
2018-01-29T21:16:19.112Z,11.48
2018-01-29T21:18:47.379Z,12.70
2018-01-29T21:21:16.333Z,12.02
2018-01-29T21:23:44.440Z,12.70
2018-01-29T21:26:13.430Z,12.98
2018-01-29T21:28:42.312Z,12.07
2018-01-29T21:31:11.223Z,15.25
2018-01-29T21:33:39.327Z,14.32
2018-01-29T21:36:07.517Z,15.27
2018-01-29T21:38:35.839Z,12.15
2018-01-29T21:41:04.719Z,13.57
2018-01-29T21:43:33.590Z,10.63
2018-01-29T21:46:01.708Z,15.25
2018-01-29T21:48:29.822Z,13.95
2018-01-29T21:50:57.951Z,17.27
2018-01-29T21:53:26.231Z,16.67
2018-01-29T21:55:54.383Z,15.30
2018-01-29T21:58:23.266Z,18.27
2018-01-29T22:00:52.167Z,18.25
2018-01-29T22:03:21.045Z,19.23
2018-01-29T22:05:49.927Z,14.73
2018-01-29T22:08:18.062Z,19.15
2018-01-29T22:10:46.211Z,15.98
2018-01-29T22:13:14.340Z,22.83
2018-01-29T22:15:42.465Z,19.98
2018-01-29T22:18:10.637Z,20.65
2018-01-29T22:20:38.815Z,19.83
2018-01-29T22:23:06.959Z,20.67
2018-01-29T22:25:35.073Z,19.90
2018-01-29T22:28:03.317Z,21.25
2018-01-29T22:30:31.435Z,23.65
2018-01-29T22:32:59.567Z,18.37
2018-01-29T22:35:27.681Z,18.95
2018-01-29T22:37:55.791Z,19.85
2018-01-29T22:40:24.683Z,23.52
2018-01-29T22:42:53.566Z,19.12
2018-01-29T22:45:22.438Z,21.37
2018-01-29T22:47:51.341Z,21.60
2018-01-29T22:50:20.434Z,23.75
2018-01-29T22:52:49.371Z,20.20
2018-01-29T22:55:17.470Z,18.90
2018-01-29T22:57:45.610Z,22.05
2018-01-29T23:00:17.858Z,20.55
2018-01-29T23:02:46.018Z,19.52
2018-01-29T23:05:14.899Z,21.67
2018-01-29T23:07:43.775Z,23.05
2018-01-29T23:10:13.419Z,19.65
2018-01-29T23:12:41.543Z,21.33
2018-01-29T23:15:09.666Z,18.67
2018-01-29T23:17:37.774Z,20.85
2018-01-29T23:20:05.905Z,22.37
2018-01-29T23:22:34.922Z,21.10
2018-01-29T23:25:03.768Z,21.33
2018-01-29T23:27:31.884Z,21.65
2018-01-29T23:30:00.021Z,21.85
2018-01-29T23:32:29.032Z,19.70
2018-01-29T23:34:57.146Z,18.35
2018-01-29T23:37:25.262Z,21.65
2018-01-29T23:39:54.162Z,20.52
2018-01-29T23:42:23.113Z,18.65
2018-01-29T23:44:51.170Z,19.15
2018-01-29T23:47:19.280Z,18.58
2018-01-29T23:49:48.182Z,16.87
2018-01-29T23:52:17.276Z,20.42
2018-01-29T23:54:46.150Z,17.77
2018-01-29T23:57:15.032Z,18.70
2018-01-29T23:59:43.234Z,18.30
